createdAt,value
2019-03-18T00:02:23.378Z,8.95
2019-03-18T00:04:52.361Z,7.83
2019-03-18T00:07:21.361Z,8.40
2019-03-18T00:09:50.338Z,7.60
2019-03-18T00:12:19.340Z,8.35
2019-03-18T00:15:00.443Z,7.78
2019-03-18T00:17:20.086Z,7.80
2019-03-18T00:19:49.069Z,8.70
2019-03-18T00:22:18.048Z,7.12
2019-03-18T00:24:46.957Z,7.20
2019-03-18T00:27:15.953Z,7.25
2019-03-18T00:29:45.239Z,7.87
2019-03-18T00:32:14.316Z,7.90
2019-03-18T00:34:43.524Z,7.65
2019-03-18T00:37:12.467Z,7.87
2019-03-18T00:39:41.356Z,7.95
2019-03-18T00:42:10.390Z,11.53
2019-03-18T00:44:39.247Z,7.80
2019-03-18T00:47:08.189Z,9.20
2019-03-18T00:49:37.408Z,7.85
2019-03-18T00:52:06.480Z,15.55
2019-03-18T00:54:35.409Z,7.92
2019-03-18T00:57:04.385Z,7.78
2019-03-18T00:59:33.354Z,8.23
2019-03-18T01:02:02.368Z,9.78
2019-03-18T01:04:31.377Z,8.78
2019-03-18T01:07:00.419Z,8.35
2019-03-18T01:09:29.547Z,7.70
2019-03-18T01:11:58.961Z,7.03
2019-03-18T01:14:27.860Z,8.85
2019-03-18T01:16:57.037Z,9.10
2019-03-18T01:19:25.950Z,7.87
2019-03-18T01:21:54.846Z,9.60
2019-03-18T01:24:23.720Z,9.05
2019-03-18T01:26:52.714Z,7.25
2019-03-18T01:29:21.634Z,9.23
2019-03-18T01:31:50.530Z,7.40
2019-03-18T01:34:19.412Z,7.10
2019-03-18T01:36:48.293Z,7.17
2019-03-18T01:39:17.200Z,8.30
2019-03-18T01:41:46.076Z,9.68
2019-03-18T01:44:15.108Z,7.83
2019-03-18T01:46:44.110Z,8.20
2019-03-18T01:49:14.249Z,7.50
2019-03-18T01:51:43.161Z,8.13
2019-03-18T01:54:12.148Z,8.00
2019-03-18T01:56:41.044Z,8.80
2019-03-18T01:59:09.946Z,7.67
2019-03-18T02:01:38.833Z,7.30
2019-03-18T02:04:07.812Z,9.98
2019-03-18T02:06:36.797Z,8.85
2019-03-18T02:09:06.810Z,10.00
2019-03-18T02:11:35.893Z,7.20
2019-03-18T02:14:04.960Z,6.90
2019-03-18T02:16:34.094Z,8.75
2019-03-18T02:19:03.095Z,8.28
2019-03-18T02:21:33.114Z,9.65
2019-03-18T02:24:02.088Z,7.17
2019-03-18T02:26:31.185Z,7.40
2019-03-18T02:29:00.194Z,7.85
2019-03-18T02:31:29.277Z,9.28
2019-03-18T02:33:58.201Z,8.50
2019-03-18T02:36:28.296Z,8.48
2019-03-18T02:38:57.285Z,7.97
2019-03-18T02:41:26.373Z,7.97
2019-03-18T02:43:55.434Z,9.15
2019-03-18T02:46:24.379Z,8.70
2019-03-18T02:48:53.286Z,7.55
2019-03-18T02:51:22.183Z,10.43
2019-03-18T02:53:51.081Z,7.70
2019-03-18T02:56:21.069Z,9.13
2019-03-18T02:58:50.056Z,7.78
2019-03-18T03:01:19.131Z,7.97
2019-03-18T03:03:48.174Z,8.18
2019-03-18T03:06:19.274Z,7.92
2019-03-18T03:08:48.186Z,9.45
2019-03-18T03:11:17.168Z,8.00
2019-03-18T03:13:46.163Z,7.60
2019-03-18T03:16:26.441Z,10.55
2019-03-18T03:18:45.985Z,7.65
2019-03-18T03:21:14.885Z,10.28
2019-03-18T03:23:43.838Z,10.23
2019-03-18T03:26:12.689Z,7.85
2019-03-18T03:28:43.710Z,8.45
2019-03-18T03:31:12.710Z,8.33
2019-03-18T03:33:41.697Z,7.97
2019-03-18T03:36:10.680Z,8.65
2019-03-18T03:38:39.773Z,8.13
2019-03-18T03:41:08.833Z,7.60
2019-03-18T03:43:37.785Z,8.35
2019-03-18T03:46:06.819Z,9.65
2019-03-18T03:48:35.857Z,7.60
2019-03-18T03:51:04.826Z,12.20
2019-03-18T03:53:33.905Z,8.33
2019-03-18T03:56:03.026Z,9.48
2019-03-18T03:58:32.492Z,13.18
2019-03-18T04:01:02.213Z,9.90
2019-03-18T04:03:38.129Z,8.18
2019-03-18T04:06:01.945Z,9.35
2019-03-18T04:08:31.944Z,8.05
2019-03-18T04:11:01.584Z,8.03
2019-03-18T04:13:30.578Z,8.18
2019-03-18T04:15:59.789Z,8.58
2019-03-18T04:18:28.774Z,8.83
2019-03-18T04:20:57.783Z,10.93
2019-03-18T04:23:26.684Z,8.08
2019-03-18T04:25:55.589Z,8.78
2019-03-18T04:28:24.496Z,9.08
2019-03-18T04:30:53.432Z,9.08
2019-03-18T04:33:22.323Z,9.15
2019-03-18T04:35:51.301Z,9.33
2019-03-18T04:38:20.215Z,11.22
2019-03-18T04:40:49.142Z,9.65
2019-03-18T04:43:17.987Z,9.10
2019-03-18T04:45:47.008Z,9.80
2019-03-18T04:48:15.954Z,9.05
2019-03-18T04:50:44.949Z,8.15
2019-03-18T04:53:13.787Z,7.97
2019-03-18T04:55:45.906Z,10.45
2019-03-18T04:58:14.743Z,7.50
2019-03-18T05:00:43.843Z,8.70
2019-03-18T05:03:12.918Z,8.80
2019-03-18T05:05:41.999Z,8.45
2019-03-18T05:08:10.825Z,8.40
2019-03-18T05:10:39.645Z,8.80
2019-03-18T05:13:08.486Z,8.33
2019-03-18T05:15:37.289Z,7.92
2019-03-18T05:18:06.232Z,8.60
2019-03-18T05:20:35.072Z,8.48
2019-03-18T05:23:04.468Z,9.23
2019-03-18T05:25:33.387Z,7.75
2019-03-18T05:28:02.219Z,7.53
2019-03-18T05:30:33.328Z,7.92
2019-03-18T05:33:02.298Z,8.20
2019-03-18T05:35:31.225Z,7.35
2019-03-18T05:38:06.065Z,7.50
2019-03-18T05:40:34.928Z,8.30
2019-03-18T05:43:07.265Z,8.98
2019-03-18T05:45:42.106Z,8.10
2019-03-18T05:48:11.162Z,11.55
2019-03-18T05:50:41.057Z,9.25
2019-03-18T05:53:09.968Z,10.43
2019-03-18T05:55:45.009Z,8.05
2019-03-18T05:58:13.889Z,9.60
2019-03-18T06:00:50.789Z,8.30
2019-03-18T06:03:19.701Z,8.40
2019-03-18T06:05:48.543Z,11.48
2019-03-18T06:08:17.450Z,11.10
2019-03-18T06:10:46.412Z,7.92
2019-03-18T06:13:16.273Z,8.90
2019-03-18T06:15:45.290Z,9.43
2019-03-18T06:18:14.392Z,9.43
2019-03-18T06:20:43.345Z,8.38
2019-03-18T06:23:13.330Z,10.13
2019-03-18T06:25:47.269Z,7.53
2019-03-18T06:28:16.137Z,8.50
2019-03-18T06:30:45.040Z,8.83
2019-03-18T06:33:13.913Z,8.78
2019-03-18T06:35:42.836Z,8.00
2019-03-18T06:38:11.729Z,8.23
2019-03-18T06:40:40.678Z,8.00
2019-03-18T06:43:10.599Z,11.88
2019-03-18T06:45:39.425Z,12.55
2019-03-18T06:48:09.259Z,8.90
2019-03-18T06:50:38.250Z,8.85
2019-03-18T06:53:07.110Z,8.13
2019-03-18T06:55:36.046Z,11.03
2019-03-18T06:58:06.927Z,8.90
2019-03-18T07:00:35.837Z,12.47
2019-03-18T07:03:04.900Z,7.45
2019-03-18T07:05:33.808Z,10.03
2019-03-18T07:08:02.922Z,8.73
2019-03-18T07:10:32.438Z,9.75
2019-03-18T07:13:01.560Z,8.05
2019-03-18T07:15:30.485Z,11.78
2019-03-18T07:17:59.405Z,8.53
2019-03-18T07:20:28.297Z,9.30
2019-03-18T07:22:57.250Z,14.38
2019-03-18T07:25:26.081Z,10.68
2019-03-18T07:27:54.926Z,9.58
2019-03-18T07:30:23.992Z,12.05
2019-03-18T07:32:52.830Z,8.88
2019-03-18T07:35:21.954Z,11.03
2019-03-18T07:37:50.873Z,9.88
2019-03-18T07:40:19.767Z,8.00
2019-03-18T07:42:48.669Z,11.55
2019-03-18T07:45:17.734Z,9.33
2019-03-18T07:47:46.737Z,9.30
2019-03-18T07:50:15.749Z,8.38
2019-03-18T07:52:44.654Z,7.92
2019-03-18T07:55:13.647Z,8.73
2019-03-18T07:57:42.565Z,10.05
2019-03-18T08:00:11.561Z,8.78
2019-03-18T08:02:40.543Z,8.00
2019-03-18T08:05:09.713Z,9.58
2019-03-18T08:07:38.975Z,9.68
2019-03-18T08:10:08.467Z,9.33
2019-03-18T08:12:37.425Z,9.80
2019-03-18T08:15:06.640Z,11.93
2019-03-18T08:17:35.525Z,9.33
2019-03-18T08:20:04.956Z,10.38
2019-03-18T08:22:33.869Z,8.00
2019-03-18T08:25:02.781Z,9.05
2019-03-18T08:27:31.601Z,8.68
2019-03-18T08:30:00.555Z,8.05
2019-03-18T08:32:30.706Z,8.98
2019-03-18T08:34:59.505Z,7.67
2019-03-18T08:37:28.356Z,10.10
2019-03-18T08:39:57.314Z,9.03
2019-03-18T08:42:26.153Z,12.95
2019-03-18T08:44:55.034Z,8.60
2019-03-18T08:47:23.997Z,7.87
2019-03-18T08:49:52.803Z,8.28
2019-03-18T08:52:27.596Z,8.90
2019-03-18T08:54:56.543Z,9.10
2019-03-18T08:57:25.586Z,9.28
2019-03-18T08:59:54.434Z,10.05
2019-03-18T09:02:23.297Z,9.48
2019-03-18T09:04:52.189Z,8.40
2019-03-18T09:07:21.109Z,8.30
2019-03-18T09:09:49.992Z,8.68
2019-03-18T09:12:18.898Z,8.50
2019-03-18T09:14:47.735Z,8.20
2019-03-18T09:17:16.553Z,10.20
2019-03-18T09:19:45.453Z,8.28
2019-03-18T09:22:15.259Z,9.03
2019-03-18T09:24:44.173Z,9.13
2019-03-18T09:27:12.981Z,8.93
2019-03-18T09:29:41.945Z,12.25
2019-03-18T09:32:10.839Z,8.50
2019-03-18T09:34:39.644Z,9.05
2019-03-18T09:37:08.576Z,9.93
2019-03-18T09:39:37.419Z,7.78
2019-03-18T09:42:06.240Z,7.85
2019-03-18T09:44:35.083Z,10.18
2019-03-18T09:47:04.056Z,8.35
2019-03-18T09:49:33.033Z,8.60
2019-03-18T09:52:01.957Z,8.18
2019-03-18T09:54:30.796Z,8.08
2019-03-18T09:56:59.701Z,7.33
2019-03-18T09:59:28.584Z,8.38
2019-03-18T10:01:57.485Z,7.47
2019-03-18T10:04:26.377Z,7.60
2019-03-18T10:07:01.621Z,8.55
2019-03-18T10:09:30.545Z,8.80
2019-03-18T10:11:59.452Z,11.18
2019-03-18T10:14:28.285Z,8.00
2019-03-18T10:17:08.732Z,8.05
2019-03-18T10:19:33.406Z,8.38
2019-03-18T10:21:59.652Z,7.92
2019-03-18T10:24:28.661Z,10.53
2019-03-18T10:26:57.477Z,8.60
2019-03-18T10:29:26.377Z,8.78
2019-03-18T10:31:55.233Z,8.80
2019-03-18T10:34:24.062Z,7.58
2019-03-18T10:36:52.964Z,7.55
2019-03-18T10:39:21.813Z,8.15
2019-03-18T10:41:50.714Z,7.17
2019-03-18T10:44:19.984Z,7.70
2019-03-18T10:46:48.957Z,8.83
2019-03-18T10:49:17.884Z,9.48
2019-03-18T10:51:48.317Z,7.70
2019-03-18T10:54:17.350Z,6.97
2019-03-18T10:56:47.570Z,7.30
2019-03-18T10:59:16.414Z,7.30
2019-03-18T11:01:45.229Z,10.65
2019-03-18T11:04:14.087Z,8.38
2019-03-18T11:06:42.968Z,7.60
2019-03-18T11:09:11.929Z,10.05
2019-03-18T11:11:40.769Z,7.10
2019-03-18T11:14:09.582Z,7.78
2019-03-18T11:16:38.564Z,8.50
2019-03-18T11:19:07.377Z,6.97
2019-03-18T11:21:36.376Z,6.70
2019-03-18T11:24:05.351Z,7.17
2019-03-18T11:26:34.194Z,7.33
2019-03-18T11:29:05.667Z,6.80
2019-03-18T11:31:34.538Z,6.80
2019-03-18T11:34:03.434Z,7.47
2019-03-18T11:36:32.358Z,7.62
2019-03-18T11:39:01.254Z,6.80
2019-03-18T11:41:30.165Z,8.15
2019-03-18T11:43:59.168Z,13.88
2019-03-18T11:46:28.042Z,7.10
2019-03-18T11:48:57.025Z,10.55
2019-03-18T11:51:26.007Z,6.70
2019-03-18T11:53:54.930Z,6.95
2019-03-18T11:56:23.918Z,7.62
2019-03-18T11:58:52.889Z,8.20
2019-03-18T12:01:21.785Z,7.05
2019-03-18T12:03:52.874Z,6.97
2019-03-18T12:06:21.773Z,7.47
2019-03-18T12:08:50.713Z,7.97
2019-03-18T12:11:19.576Z,7.53
2019-03-18T12:13:49.631Z,10.63
2019-03-18T12:16:18.677Z,7.42
2019-03-18T12:18:48.637Z,8.05
2019-03-18T12:21:17.540Z,6.87
2019-03-18T12:23:46.505Z,7.35
2019-03-18T12:26:15.382Z,7.50
2019-03-18T12:28:45.391Z,6.95
2019-03-18T12:31:14.374Z,7.45
2019-03-18T12:33:43.340Z,7.75
2019-03-18T12:36:12.410Z,7.00
2019-03-18T12:38:42.272Z,7.20
2019-03-18T12:41:21.262Z,6.70
2019-03-18T12:43:52.166Z,9.85
2019-03-18T12:46:33.216Z,7.97
2019-03-18T12:49:02.150Z,9.25
2019-03-18T12:51:31.311Z,7.62
2019-03-18T12:54:06.544Z,8.95
2019-03-18T12:56:41.494Z,7.60
2019-03-18T12:59:29.547Z,7.15
2019-03-18T13:01:58.481Z,7.30
2019-03-18T13:04:27.502Z,7.67
2019-03-18T13:06:56.645Z,7.80
2019-03-18T13:09:25.726Z,8.63
2019-03-18T13:11:55.770Z,8.30
2019-03-18T13:14:24.786Z,7.70
2019-03-18T13:16:53.629Z,9.10
2019-03-18T13:19:22.651Z,16.80
2019-03-18T13:21:51.502Z,8.00
2019-03-18T13:24:20.742Z,7.33
2019-03-18T13:26:58.604Z,9.60
2019-03-18T13:29:26.699Z,8.23
2019-03-18T13:31:55.543Z,7.28
2019-03-18T13:34:26.543Z,10.23
2019-03-18T13:36:55.446Z,8.40
2019-03-18T13:39:24.434Z,8.55
2019-03-18T13:41:53.387Z,7.95
2019-03-18T13:44:28.397Z,8.28
2019-03-18T13:46:57.420Z,8.23
2019-03-18T13:49:26.305Z,7.95
2019-03-18T13:51:55.217Z,11.10
2019-03-18T13:54:26.155Z,9.75
2019-03-18T13:57:00.879Z,9.55
2019-03-18T13:59:29.765Z,7.83
2019-03-18T14:01:58.704Z,10.58
2019-03-18T14:04:27.526Z,8.58
2019-03-18T14:06:56.461Z,7.80
2019-03-18T14:09:25.388Z,8.18
2019-03-18T14:11:54.473Z,7.85
2019-03-18T14:14:23.481Z,8.10
2019-03-18T14:16:52.492Z,9.80
2019-03-18T14:19:21.334Z,6.90
2019-03-18T14:21:50.214Z,8.35
2019-03-18T14:24:19.321Z,8.73
2019-03-18T14:26:48.277Z,7.92
2019-03-18T14:29:17.194Z,8.10
2019-03-18T14:31:46.180Z,6.90
2019-03-18T14:34:15.085Z,6.80
2019-03-18T14:36:43.998Z,10.80
2019-03-18T14:39:13.005Z,8.75
2019-03-18T14:41:47.944Z,7.87
2019-03-18T14:44:16.790Z,6.85
2019-03-18T14:46:45.690Z,7.55
2019-03-18T14:49:14.654Z,7.85
2019-03-18T14:51:46.077Z,8.20
2019-03-18T14:54:14.210Z,6.65
2019-03-18T14:56:43.231Z,7.83
2019-03-18T14:59:12.174Z,7.50
2019-03-18T15:01:41.098Z,7.90
2019-03-18T15:04:13.026Z,9.35
2019-03-18T15:06:42.001Z,8.18
2019-03-18T15:09:10.849Z,8.60
2019-03-18T15:11:39.703Z,6.78
2019-03-18T15:14:08.546Z,7.78
2019-03-18T15:16:37.413Z,10.05
2019-03-18T15:19:12.348Z,7.20
2019-03-18T15:21:42.292Z,8.83
2019-03-18T15:24:16.917Z,8.03
2019-03-18T15:26:41.963Z,8.73
2019-03-18T15:29:10.881Z,8.10
2019-03-18T15:31:39.836Z,8.10
2019-03-18T15:34:08.743Z,7.40
2019-03-18T15:36:37.665Z,8.45
2019-03-18T15:39:07.274Z,8.83
2019-03-18T15:41:42.171Z,7.40
2019-03-18T15:44:11.095Z,8.28
2019-03-18T15:46:39.939Z,11.12
2019-03-18T15:49:08.833Z,7.92
2019-03-18T15:51:37.776Z,10.48
2019-03-18T15:54:06.682Z,8.08
2019-03-18T15:56:35.535Z,11.93
2019-03-18T15:59:04.574Z,7.40
2019-03-18T16:01:33.482Z,8.68
2019-03-18T16:04:02.420Z,7.08
2019-03-18T16:06:31.327Z,8.15
2019-03-18T16:09:00.315Z,9.25
2019-03-18T16:11:34.332Z,10.28
2019-03-18T16:14:03.202Z,8.25
2019-03-18T16:16:40.003Z,7.70
2019-03-18T16:19:15.788Z,9.38
2019-03-18T16:21:51.886Z,8.95
2019-03-18T16:24:21.931Z,8.95
2019-03-18T16:26:57.714Z,8.95
2019-03-18T16:29:26.903Z,8.88
2019-03-18T16:31:55.786Z,8.13
2019-03-18T16:34:27.980Z,7.50
2019-03-18T16:36:59.067Z,7.53
2019-03-18T16:39:30.265Z,8.38
2019-03-18T16:41:59.296Z,9.40
2019-03-18T16:44:30.207Z,7.80
2019-03-18T16:46:59.057Z,8.65
2019-03-18T16:49:27.939Z,8.00
2019-03-18T16:51:56.822Z,9.03
2019-03-18T16:54:28.884Z,7.35
2019-03-18T16:56:57.892Z,9.03
2019-03-18T16:59:26.735Z,10.75
2019-03-18T17:01:55.771Z,8.20
2019-03-18T17:04:24.619Z,9.85
2019-03-18T17:06:53.486Z,8.70
2019-03-18T17:09:22.334Z,10.38
2019-03-18T17:11:51.625Z,7.83
2019-03-18T17:14:20.545Z,9.95
2019-03-18T17:16:55.495Z,8.55
2019-03-18T17:19:41.933Z,12.05
2019-03-18T17:22:23.970Z,7.75
2019-03-18T17:24:59.010Z,9.80
2019-03-18T17:27:32.230Z,7.60
2019-03-18T17:30:10.170Z,8.90
2019-03-18T17:33:04.067Z,8.50
2019-03-18T17:35:33.049Z,10.55
2019-03-18T17:38:07.728Z,9.43
2019-03-18T17:40:37.700Z,8.40
2019-03-18T17:43:07.795Z,9.58
2019-03-18T17:45:36.842Z,8.78
2019-03-18T17:48:05.902Z,7.90
2019-03-18T17:50:34.924Z,9.45
2019-03-18T17:53:04.309Z,7.47
2019-03-18T17:55:34.495Z,7.45
2019-03-18T17:58:03.432Z,10.85
2019-03-18T18:00:41.658Z,7.20
2019-03-18T18:03:10.850Z,7.42
2019-03-18T18:05:39.953Z,9.30
2019-03-18T18:08:14.776Z,12.68
2019-03-18T18:10:43.781Z,7.10
2019-03-18T18:13:14.828Z,9.55
2019-03-18T18:15:49.585Z,8.40
2019-03-18T18:18:18.615Z,9.65
2019-03-18T18:20:53.535Z,8.55
2019-03-18T18:23:28.294Z,7.87
2019-03-18T18:26:00.593Z,11.08
2019-03-18T18:28:35.610Z,11.43
2019-03-18T18:31:04.579Z,9.55
2019-03-18T18:33:40.590Z,7.83
2019-03-18T18:36:09.646Z,10.82
2019-03-18T18:38:38.611Z,8.85
2019-03-18T18:41:07.515Z,7.35
2019-03-18T18:43:54.730Z,7.42
2019-03-18T18:46:29.671Z,7.50
2019-03-18T18:49:01.843Z,7.55
2019-03-18T18:51:39.935Z,8.95
2019-03-18T18:54:10.872Z,8.58
2019-03-18T18:56:39.851Z,10.48
2019-03-18T18:59:10.895Z,8.00
2019-03-18T19:01:54.861Z,9.15
2019-03-18T19:04:23.823Z,9.93
2019-03-18T19:06:54.839Z,9.93
2019-03-18T19:09:23.870Z,9.90
2019-03-18T19:12:04.307Z,12.88
2019-03-18T19:14:33.355Z,7.95
2019-03-18T19:17:06.482Z,9.98
2019-03-18T19:19:35.514Z,8.90
2019-03-18T19:22:16.792Z,7.83
2019-03-18T19:24:51.934Z,8.90
2019-03-18T19:27:20.816Z,8.60
2019-03-18T19:30:02.108Z,8.65
2019-03-18T19:32:50.216Z,8.60
2019-03-18T19:35:21.453Z,13.72
2019-03-18T19:37:50.531Z,9.00
2019-03-18T19:40:19.566Z,8.93
2019-03-18T19:42:49.650Z,10.80
2019-03-18T19:45:18.774Z,9.95
2019-03-18T19:47:53.313Z,8.78
2019-03-18T19:50:22.811Z,8.65
2019-03-18T19:52:52.908Z,9.15
2019-03-18T19:55:23.791Z,9.65
2019-03-18T19:57:54.798Z,10.78
2019-03-18T20:00:25.766Z,9.00
2019-03-18T20:02:54.730Z,10.50
2019-03-18T20:05:23.770Z,11.85
2019-03-18T20:07:59.964Z,12.30
2019-03-18T20:10:36.538Z,14.07
2019-03-18T20:13:06.379Z,12.53
2019-03-18T20:15:49.601Z,11.12
2019-03-18T20:18:18.584Z,12.50
2019-03-18T20:20:47.502Z,11.10
2019-03-18T20:23:16.554Z,12.18
2019-03-18T20:25:46.420Z,13.18
2019-03-18T20:28:32.505Z,11.75
2019-03-18T20:31:02.583Z,10.80
2019-03-18T20:33:31.438Z,13.50
2019-03-18T20:36:00.361Z,11.18
2019-03-18T20:38:29.319Z,11.30
2019-03-18T20:40:58.298Z,10.98
2019-03-18T20:43:27.249Z,12.85
2019-03-18T20:45:56.238Z,12.73
2019-03-18T20:48:28.261Z,13.95
2019-03-18T20:50:57.295Z,13.10
2019-03-18T20:53:27.828Z,18.30
2019-03-18T20:55:59.793Z,18.37
2019-03-18T20:58:28.678Z,23.62
2019-03-18T21:00:58.543Z,17.40
2019-03-18T21:03:28.743Z,14.05
2019-03-18T21:05:57.751Z,15.15
2019-03-18T21:08:28.672Z,14.65
2019-03-18T21:10:57.694Z,14.45
2019-03-18T21:13:26.530Z,14.85
2019-03-18T21:15:55.463Z,13.83
2019-03-18T21:18:24.377Z,14.73
2019-03-18T21:20:53.305Z,18.25
2019-03-18T21:23:22.226Z,21.23
2019-03-18T21:25:51.301Z,17.82
2019-03-18T21:28:20.149Z,16.45
2019-03-18T21:30:49.015Z,15.55
2019-03-18T21:33:17.950Z,19.05
2019-03-18T21:35:46.838Z,18.73
2019-03-18T21:38:15.848Z,17.62
2019-03-18T21:40:44.796Z,17.52
2019-03-18T21:43:13.711Z,16.17
2019-03-18T21:45:42.554Z,18.80
2019-03-18T21:48:11.532Z,20.08
2019-03-18T21:50:40.614Z,18.20
2019-03-18T21:53:09.484Z,21.50
2019-03-18T21:55:38.411Z,21.33
2019-03-18T21:58:07.971Z,18.77
2019-03-18T22:00:37.001Z,20.92
2019-03-18T22:03:05.974Z,19.98
2019-03-18T22:05:34.990Z,16.12
2019-03-18T22:08:03.957Z,14.47
2019-03-18T22:10:32.888Z,14.80
2019-03-18T22:13:01.829Z,13.03
2019-03-18T22:15:30.746Z,14.15
2019-03-18T22:17:59.699Z,11.83
2019-03-18T22:20:28.619Z,14.05
2019-03-18T22:22:57.558Z,12.93
2019-03-18T22:25:26.430Z,14.00
2019-03-18T22:27:55.441Z,11.78
2019-03-18T22:30:24.316Z,12.07
2019-03-18T22:32:53.313Z,14.83
2019-03-18T22:35:22.154Z,12.58
2019-03-18T22:37:51.114Z,11.25
2019-03-18T22:40:20.112Z,12.43
2019-03-18T22:42:48.958Z,12.82
2019-03-18T22:45:17.996Z,12.05
2019-03-18T22:47:47.066Z,10.98
2019-03-18T22:50:17.050Z,12.50
2019-03-18T22:52:46.059Z,13.60
2019-03-18T22:55:15.187Z,11.93
2019-03-18T22:57:44.234Z,11.60
2019-03-18T23:00:20.879Z,12.93
2019-03-18T23:02:51.070Z,12.33
2019-03-18T23:05:20.066Z,14.05
2019-03-18T23:07:49.085Z,12.13
2019-03-18T23:10:18.069Z,10.50
2019-03-18T23:12:47.001Z,11.50
2019-03-18T23:15:16.016Z,10.23
2019-03-18T23:17:44.947Z,12.05
2019-03-18T23:20:14.040Z,12.60
2019-03-18T23:22:43.063Z,12.95
2019-03-18T23:25:12.034Z,9.95
2019-03-18T23:27:40.902Z,11.83
2019-03-18T23:30:10.066Z,10.90
2019-03-18T23:32:39.087Z,13.83
2019-03-18T23:35:08.659Z,12.60
2019-03-18T23:37:37.647Z,12.13
2019-03-18T23:40:06.658Z,17.75
2019-03-18T23:42:35.512Z,12.13
2019-03-18T23:45:06.799Z,12.75
2019-03-18T23:47:35.745Z,13.35
2019-03-18T23:50:04.974Z,13.32
2019-03-18T23:52:33.895Z,11.70
2019-03-18T23:55:02.842Z,11.78
2019-03-18T23:57:33.955Z,13.50
